Time;durP1;ratioP1;P1;durP2;ratioP2;P2;SDS_P1;SDS_P2;PMS_P1;PMS_P2;Temp;Humidity;BMP_temperature;BMP_pressure;BME280_temperature;BME280_humidity;BME280_pressure;Samples;Min_cycle;Max_cycle;Signal;HPM_P1;HPM_P2
2022/03/30 00:01:32;;;;;;;29.38;6.72;;;;;;;8.74;51.79;92758.69;5009707;28;20479;-50
2022/03/30 00:03:59;;;;;;;38.37;13.27;;;;;;;8.67;51.78;92754.19;5009822;28;20047;-51
2022/03/30 00:06:26;;;;;;;38.03;9.93;;;;;;;8.68;52.07;92752.22;5008827;28;20046;-50
2022/03/30 00:08:53;;;;;;;45.88;12.57;;;;;;;8.63;53.23;92758.19;5009615;28;20058;-52
2022/03/30 00:11:20;;;;;;;30.45;7.38;;;;;;;8.46;53.42;92755.50;5009804;28;20034;-51
2022/03/30 00:13:47;;;;;;;35.30;7.88;;;;;;;8.47;52.90;92761.72;5009974;28;20042;-48
2022/03/30 00:16:13;;;;;;;22.23;6.67;;;;;;;8.51;52.88;92757.72;5010171;28;20038;-50
2022/03/30 00:18:40;;;;;;;38.40;7.22;;;;;;;8.52;53.03;92755.75;5008883;28;20103;-48
2022/03/30 00:21:08;;;;;;;35.05;7.78;;;;;;;8.55;52.95;92754.88;5010091;28;20041;-53
2022/03/30 00:23:35;;;;;;;32.40;8.27;;;;;;;8.58;53.11;92741.13;5009579;28;20057;-52
2022/03/30 00:26:02;;;;;;;31.05;6.70;;;;;;;8.64;52.70;92744.09;5012714;28;20064;-49
2022/03/30 00:28:28;;;;;;;23.67;6.60;;;;;;;8.56;53.14;92742.75;5016247;28;20075;-48
2022/03/30 00:30:56;;;;;;;30.30;7.32;;;;;;;8.63;53.29;92742.53;5015874;28;20064;-48
2022/03/30 00:33:23;;;;;;;22.98;7.22;;;;;;;8.67;52.96;92739.72;5016229;28;20127;-51
2022/03/30 00:35:50;;;;;;;34.33;7.47;;;;;;;8.53;54.19;92736.19;5015828;28;20115;-47
2022/03/30 00:38:18;;;;;;;27.90;8.23;;;;;;;8.49;53.45;92729.25;5016397;28;20061;-55
2022/03/30 00:40:45;;;;;;;34.57;7.87;;;;;;;8.53;53.67;92732.66;5015849;28;20042;-54
2022/03/30 00:43:12;;;;;;;30.80;7.47;;;;;;;8.59;53.27;92731.72;5016457;28;20072;-50
2022/03/30 00:45:39;;;;;;;30.60;7.78;;;;;;;8.54;53.71;92721.31;5014080;28;20050;-49
2022/03/30 00:48:07;;;;;;;30.63;6.57;;;;;;;8.52;54.34;92722.94;5016027;28;20060;-46
2022/03/30 00:50:34;;;;;;;29.55;7.05;;;;;;;8.52;54.06;92720.97;5015762;28;20050;-46
2022/03/30 00:53:00;;;;;;;36.37;6.83;;;;;;;8.47;54.02;92721.50;5015717;28;20038;-47
2022/03/30 00:55:27;;;;;;;33.47;7.55;;;;;;;8.51;54.02;92710.44;5015979;28;20042;-47
2022/03/30 00:57:57;;;;;;;32.05;7.43;;;;;;;8.41;54.36;92715.03;5015468;28;20487;-50
2022/03/30 01:00:24;;;;;;;27.80;6.63;;;;;;;8.52;54.48;92715.50;5015806;28;20433;-53
2022/03/30 01:02:52;;;;;;;37.70;8.82;;;;;;;8.36;54.95;92716.28;5014324;28;20049;-47
2022/03/30 01:05:19;;;;;;;41.43;13.47;;;;;;;8.04;56.00;92717.09;5015065;28;20045;-50
2022/03/30 01:07:46;;;;;;;30.50;8.15;;;;;;;8.15;55.33;92722.31;5015318;28;20042;-50
2022/03/30 01:10:15;;;;;;;31.77;7.15;;;;;;;8.30;55.73;92709.03;5016360;28;20352;-49
2022/03/30 01:12:43;;;;;;;27.50;6.57;;;;;;;8.39;55.10;92712.69;5015302;28;20045;-48
2022/03/30 01:15:12;;;;;;;27.70;6.88;;;;;;;8.50;55.29;92714.41;5016036;28;20037;-48
2022/03/30 01:17:40;;;;;;;25.87;6.20;;;;;;;8.58;55.26;92702.81;5015353;28;20044;-47
2022/03/30 01:20:10;;;;;;;27.52;6.72;;;;;;;8.34;55.91;92701.50;5015748;28;20042;-47
2022/03/30 01:22:38;;;;;;;31.60;7.38;;;;;;;8.25;57.04;92701.34;5015904;28;20046;-50
2022/03/30 01:25:05;;;;;;;27.77;7.13;;;;;;;8.30;57.22;92695.38;5015027;28;20653;-48
2022/03/30 01:27:32;;;;;;;31.33;9.50;;;;;;;8.24;57.83;92684.19;5015688;28;20498;-47
2022/03/30 01:32:53;;;;;;;29.02;7.43;;;;;;;8.26;56.46;92672.84;5015442;28;20045;-52
2022/03/30 01:35:20;;;;;;;25.75;7.70;;;;;;;8.48;55.88;92668.34;5016117;28;20038;-48
2022/03/30 01:37:47;;;;;;;35.05;7.40;;;;;;;8.53;57.23;92669.78;5012761;28;20061;-54
2022/03/30 01:40:14;;;;;;;35.22;7.40;;;;;;;8.11;58.96;92667.75;5012655;28;20398;-48
2022/03/30 01:42:40;;;;;;;34.53;7.77;;;;;;;8.04;59.42;92658.97;5011875;28;20068;-53
2022/03/30 01:45:11;;;;;;;31.80;7.07;;;;;;;8.26;59.68;92662.66;5012644;28;20042;-49
2022/03/30 01:47:41;;;;;;;29.55;7.07;;;;;;;8.34;59.38;92666.72;5012454;28;20604;-48
2022/03/30 01:50:09;;;;;;;29.52;7.05;;;;;;;8.29;59.73;92661.03;5011667;28;20882;-48
2022/03/30 01:52:36;;;;;;;27.42;7.25;;;;;;;8.34;59.45;92655.81;5012591;28;20049;-52
2022/03/30 01:55:03;;;;;;;40.37;15.03;;;;;;;8.37;59.49;92651.44;5012246;28;20513;-51
2022/03/30 01:57:30;;;;;;;42.88;15.25;;;;;;;8.33;59.27;92648.81;5012359;28;20046;-47
2022/03/30 01:59:57;;;;;;;28.55;7.82;;;;;;;8.27;59.19;92645.06;5010816;28;20052;-51
2022/03/30 02:02:24;;;;;;;28.60;8.75;;;;;;;8.30;59.20;92641.47;5010876;28;20072;-54
2022/03/30 02:04:50;;;;;;;26.20;7.63;;;;;;;8.21;59.99;92638.59;5011894;28;20042;-48
2022/03/30 02:07:19;;;;;;;53.50;17.50;;;;;;;8.33;59.35;92637.09;5010969;28;20063;-46
2022/03/30 02:09:46;;;;;;;27.45;7.95;;;;;;;8.29;57.38;92634.47;5011771;28;20046;-46
2022/03/30 02:12:13;;;;;;;32.10;7.40;;;;;;;8.34;57.76;92628.47;5012339;28;20478;-46
2022/03/30 02:14:41;;;;;;;24.40;7.15;;;;;;;8.45;57.11;92627.44;5011419;28;20048;-51
2022/03/30 02:17:07;;;;;;;30.83;7.65;;;;;;;8.53;56.69;92632.28;5012068;28;20050;-49
2022/03/30 02:19:35;;;;;;;33.10;7.50;;;;;;;8.62;56.32;92636.34;5011563;28;20038;-48
2022/03/30 02:22:02;;;;;;;31.25;7.35;;;;;;;8.62;55.89;92625.41;5010164;28;20052;-46
2022/03/30 02:24:29;;;;;;;27.42;7.10;;;;;;;8.64;55.83;92620.28;5011633;28;20123;-46
2022/03/30 02:26:55;;;;;;;28.58;6.72;;;;;;;8.70;55.83;92622.03;5011616;28;20054;-45
2022/03/30 02:29:22;;;;;;;29.27;6.78;;;;;;;8.74;55.04;92614.47;5011862;28;20076;-50
2022/03/30 02:31:51;;;;;;;29.63;6.80;;;;;;;8.79;55.21;92619.41;5011254;28;20049;-49
2022/03/30 02:34:18;;;;;;;23.58;6.93;;;;;;;8.75;55.57;92615.22;5011688;28;20042;-45
2022/03/30 02:36:45;;;;;;;29.60;7.07;;;;;;;8.62;57.08;92609.75;5009894;28;20807;-51
2022/03/30 02:39:14;;;;;;;25.02;6.53;;;;;;;8.50;57.73;92615.97;5010329;28;20041;-45
2022/03/30 02:41:41;;;;;;;32.42;7.00;;;;;;;8.57;58.11;92611.06;5009438;28;20050;-45
2022/03/30 02:44:08;;;;;;;29.60;7.20;;;;;;;8.65;58.49;92611.59;5010387;28;20038;-49
2022/03/30 02:46:35;;;;;;;37.22;7.10;;;;;;;8.54;58.52;92603.72;5009793;28;20108;-47
2022/03/30 02:49:02;;;;;;;27.33;7.00;;;;;;;8.16;61.01;92600.84;5008785;28;20483;-48
2022/03/30 02:51:29;;;;;;;37.10;6.82;;;;;;;8.30;60.50;92605.16;5011256;28;20395;-46
2022/03/30 02:53:57;;;;;;;23.70;6.22;;;;;;;8.38;59.74;92606.50;5010812;28;20046;-48
2022/03/30 02:56:23;;;;;;;27.47;7.13;;;;;;;8.36;59.71;92601.47;5011482;28;20048;-49
2022/03/30 02:58:51;;;;;;;32.42;7.90;;;;;;;8.35;58.33;92589.00;5010444;28;20052;-47
2022/03/30 03:01:17;;;;;;;34.08;7.43;;;;;;;8.38;59.45;92590.09;5011146;28;20038;-46
2022/03/30 03:03:44;;;;;;;30.40;6.90;;;;;;;8.14;59.92;92589.59;5010288;28;20057;-45
2022/03/30 03:06:12;;;;;;;29.38;7.00;;;;;;;8.34;59.24;92586.69;5009756;28;20050;-49
2022/03/30 03:08:39;;;;;;;33.10;7.03;;;;;;;8.47;58.03;92589.47;5010184;28;20064;-47
2022/03/30 03:11:05;;;;;;;22.48;6.90;;;;;;;8.51;59.28;92590.94;5011160;28;20046;-46
2022/03/30 03:13:32;;;;;;;31.38;7.50;;;;;;;8.56;59.92;92590.38;5010659;28;20060;-51
2022/03/30 03:15:59;;;;;;;30.02;6.82;;;;;;;8.56;59.25;92579.44;5009460;28;20123;-45
2022/03/30 03:18:26;;;;;;;28.30;7.25;;;;;;;8.63;59.76;92580.44;5009117;28;20065;-50
2022/03/30 03:20:53;;;;;;;26.37;6.83;;;;;;;8.66;60.35;92579.56;4992772;28;20042;-50
2022/03/30 03:23:20;;;;;;;27.65;7.45;;;;;;;8.54;61.56;92592.03;5010920;28;20068;-47
2022/03/30 03:25:46;;;;;;;33.10;8.07;;;;;;;7.99;62.62;92581.78;5009940;28;20060;-52
2022/03/30 03:28:14;;;;;;;29.50;8.15;;;;;;;8.09;63.56;92576.44;5010748;28;20044;-50
2022/03/30 03:30:42;;;;;;;34.50;7.70;;;;;;;8.25;63.52;92581.09;5010042;28;20053;-50
2022/03/30 03:33:09;;;;;;;33.47;7.90;;;;;;;8.22;64.58;92576.50;5009361;28;20095;-48
2022/03/30 03:35:37;;;;;;;31.25;8.55;;;;;;;8.38;64.38;92574.47;5009138;28;20050;-46
2022/03/30 03:38:05;;;;;;;30.42;9.68;;;;;;;8.32;65.63;92569.97;5009451;28;21511;-48
2022/03/30 03:40:32;;;;;;;38.65;9.98;;;;;;;8.11;66.50;92571.31;5010377;28;20057;-47
2022/03/30 03:43:00;;;;;;;26.65;9.32;;;;;;;8.28;65.60;92569.31;5009761;28;20080;-49
2022/03/30 03:45:27;;;;;;;31.77;9.93;;;;;;;8.45;65.27;92572.75;5010718;28;20095;-52
2022/03/30 03:47:54;;;;;;;30.95;9.55;;;;;;;8.36;66.50;92563.19;5009612;28;20053;-49
2022/03/30 03:50:21;;;;;;;33.45;9.38;;;;;;;8.44;66.45;92574.72;4993049;28;20034;-50
2022/03/30 03:52:48;;;;;;;30.05;9.20;;;;;;;8.47;67.22;92562.94;5009660;28;20053;-49
2022/03/30 03:55:20;;;;;;;36.17;9.38;;;;;;;8.37;68.21;92556.53;5010454;28;20042;-47
2022/03/30 03:57:47;;;;;;;29.73;9.07;;;;;;;8.20;67.41;92555.81;5009393;28;20046;-51
2022/03/30 04:00:14;;;;;;;26.67;8.75;;;;;;;8.43;68.00;92561.47;5009848;28;20048;-48
2022/03/30 04:02:41;;;;;;;36.20;12.32;;;;;;;8.27;69.55;92546.69;5009363;28;20380;-47
2022/03/30 04:05:09;;;;;;;33.22;10.20;;;;;;;8.09;70.11;92555.38;5010046;28;20046;-46
2022/03/30 04:07:38;;;;;;;29.25;11.00;;;;;;;8.31;68.41;92546.56;5009872;28;20049;-51
2022/03/30 04:10:10;;;;;;;36.33;11.80;;;;;;;8.38;69.07;92546.38;5028807;28;20957;-47
2022/03/30 04:12:38;;;;;;;31.90;11.43;;;;;;;8.37;70.18;92544.81;5029678;28;20075;-51
2022/03/30 04:15:06;;;;;;;37.80;8.90;;;;;;;8.13;71.96;92544.31;5028370;28;21335;-54
2022/03/30 04:17:33;;;;;;;29.05;7.13;;;;;;;8.05;72.69;92548.47;5029380;28;20057;-53
2022/03/30 04:20:01;;;;;;;29.45;7.50;;;;;;;8.02;73.44;92552.06;5029091;28;20397;-47
2022/03/30 04:22:28;;;;;;;24.13;7.07;;;;;;;8.13;72.46;92547.06;5029692;28;20051;-48
2022/03/30 04:24:54;;;;;;;29.55;6.75;;;;;;;8.05;72.19;92543.78;5028903;28;20058;-54
2022/03/30 04:27:21;;;;;;;30.83;8.50;;;;;;;8.00;73.98;92545.06;5029707;28;20038;-53
2022/03/30 04:29:48;;;;;;;33.45;8.45;;;;;;;8.02;73.49;92546.59;5028960;28;20052;-47
2022/03/30 04:32:15;;;;;;;31.25;8.60;;;;;;;7.94;73.58;92546.78;5028257;28;20053;-51
2022/03/30 04:34:42;;;;;;;28.93;7.57;;;;;;;7.96;74.45;92552.59;5028541;28;20067;-49
2022/03/30 04:37:09;;;;;;;31.42;7.22;;;;;;;7.82;75.57;92555.72;5029595;28;20044;-47
2022/03/30 04:39:36;;;;;;;25.50;6.95;;;;;;;7.58;76.74;92558.66;5029326;28;20042;-51
2022/03/30 04:42:03;;;;;;;30.23;7.47;;;;;;;7.50;77.18;92560.03;5028898;28;20056;-52
2022/03/30 04:44:30;;;;;;;35.47;8.10;;;;;;;7.55;76.34;92556.81;5029388;28;20063;-48
2022/03/30 04:46:56;;;;;;;27.87;8.00;;;;;;;7.54;76.21;92555.25;5010964;28;20072;-49
2022/03/30 04:49:23;;;;;;;30.33;7.93;;;;;;;7.66;75.46;92561.22;5029102;28;20051;-48
2022/03/30 04:51:50;;;;;;;27.08;8.43;;;;;;;7.63;75.96;92548.44;5028536;28;20046;-47
2022/03/30 04:54:18;;;;;;;25.25;7.97;;;;;;;7.60;75.10;92539.13;5029320;28;20037;-53
2022/03/30 04:56:45;;;;;;;25.35;7.55;;;;;;;7.68;75.22;92545.94;5028326;28;20156;-48
2022/03/30 04:59:12;;;;;;;30.03;7.40;;;;;;;7.75;75.79;92540.28;5029463;28;20482;-48
2022/03/30 05:01:39;;;;;;;34.45;10.70;;;;;;;7.71;76.71;92538.88;5018670;28;20045;-54
2022/03/30 05:04:07;;;;;;;44.65;15.02;;;;;;;7.47;77.90;92541.81;5007981;28;20406;-47
2022/03/30 05:06:34;;;;;;;32.08;9.95;;;;;;;7.47;78.74;92533.63;5020045;28;20413;-48
2022/03/30 05:09:02;;;;;;;38.53;12.73;;;;;;;7.46;79.25;92525.84;5029343;28;20478;-47
2022/03/30 05:11:28;;;;;;;47.87;11.83;;;;;;;7.26;80.50;92528.69;5029851;28;20049;-48
2022/03/30 05:13:55;;;;;;;42.65;13.80;;;;;;;7.38;79.82;92519.81;5032140;28;20041;-52
2022/03/30 05:16:22;;;;;;;62.80;18.65;;;;;;;7.45;79.91;92518.88;5033246;28;20061;-54
2022/03/30 05:18:49;;;;;;;37.35;11.75;;;;;;;7.40;80.81;92507.28;5032710;28;20045;-47
2022/03/30 05:21:16;;;;;;;42.25;13.65;;;;;;;7.46;80.69;92504.00;5033334;28;20040;-46
2022/03/30 05:23:42;;;;;;;26.43;9.63;;;;;;;7.45;80.81;92502.50;5032520;28;20057;-51
2022/03/30 05:26:09;;;;;;;28.95;9.55;;;;;;;7.43;80.41;92500.19;5033312;28;20048;-49
2022/03/30 05:28:38;;;;;;;27.65;8.48;;;;;;;7.36;81.11;92497.63;5033239;28;20037;-51
2022/03/30 05:31:09;;;;;;;26.38;9.15;;;;;;;7.31;81.78;92500.91;5032021;28;20409;-52
2022/03/30 05:33:36;;;;;;;26.67;7.75;;;;;;;7.28;81.88;92499.00;5032939;28;20051;-49
2022/03/30 05:36:04;;;;;;;26.27;8.40;;;;;;;7.36;82.01;92505.81;5032498;28;20052;-49
2022/03/30 05:38:30;;;;;;;29.27;10.00;;;;;;;7.35;81.75;92502.34;5032837;28;20052;-46
2022/03/30 05:40:57;;;;;;;33.58;12.80;;;;;;;7.46;81.50;92501.28;5032527;28;20532;-53
2022/03/30 05:43:25;;;;;;;46.30;17.98;;;;;;;7.54;81.06;92505.34;5032782;28;20049;-54
2022/03/30 05:45:52;;;;;;;46.95;20.98;;;;;;;7.55;81.31;92499.47;5032426;28;20053;-48
2022/03/30 05:48:19;;;;;;;45.23;16.03;;;;;;;7.55;81.77;92496.75;5032781;28;20037;-47
2022/03/30 05:50:46;;;;;;;32.90;12.18;;;;;;;7.56;80.96;92495.53;5032412;28;20045;-50
2022/03/30 05:53:17;;;;;;;50.30;23.60;;;;;;;7.26;83.04;92488.53;5032480;28;20053;-55
2022/03/30 05:55:44;;;;;;;33.58;13.93;;;;;;;7.34;83.19;92492.59;5032515;28;20062;-47
2022/03/30 05:58:14;;;;;;;37.63;13.00;;;;;;;7.47;83.10;92502.84;5032547;28;20478;-50
2022/03/30 06:00:42;;;;;;;67.57;18.83;;;;;;;7.53;82.28;92496.41;5030613;28;20041;-51
2022/03/30 06:03:12;;;;;;;43.55;13.20;;;;;;;7.52;83.16;92496.84;5017513;28;20076;-48
2022/03/30 06:05:40;;;;;;;42.30;12.45;;;;;;;7.34;83.68;92489.88;5011393;28;20084;-47
2022/03/30 06:08:07;;;;;;;44.13;12.68;;;;;;;7.46;83.57;92499.31;5030373;28;20041;-46
2022/03/30 06:10:35;;;;;;;58.47;15.27;;;;;;;7.43;83.46;92492.00;5032543;28;20079;-48
2022/03/30 06:13:03;;;;;;;83.67;22.27;;;;;;;7.40;82.72;92499.09;5031219;28;20072;-48
2022/03/30 06:15:31;;;;;;;58.47;16.40;;;;;;;7.39;83.04;92492.09;5031368;28;20056;-53
2022/03/30 06:17:58;;;;;;;62.35;20.08;;;;;;;7.47;82.94;92497.38;5030726;28;21746;-54
2022/03/30 06:20:26;;;;;;;41.08;13.23;;;;;;;7.38;83.35;92489.78;5031292;28;20049;-51
2022/03/30 06:22:54;;;;;;;39.03;12.63;;;;;;;7.27;84.85;92487.34;5030605;28;20053;-49
2022/03/30 06:25:22;;;;;;;34.37;10.80;;;;;;;7.01;85.95;92486.44;5031231;28;20116;-56
2022/03/30 06:27:50;;;;;;;40.13;11.07;;;;;;;7.26;85.45;92493.22;5027741;28;20049;-54
2022/03/30 06:30:16;;;;;;;48.13;15.40;;;;;;;7.33;84.76;92493.06;5031971;28;20074;-48
2022/03/30 06:32:46;;;;;;;39.70;13.45;;;;;;;7.42;84.68;92493.19;5031812;28;20449;-47
2022/03/30 06:35:12;;;;;;;43.35;13.88;;;;;;;7.57;84.10;92493.59;5032212;28;20045;-49
2022/03/30 06:37:39;;;;;;;35.13;11.83;;;;;;;7.39;84.20;92497.53;5031316;28;20517;-47
2022/03/30 06:40:07;;;;;;;39.35;12.60;;;;;;;7.31;84.96;92496.19;5031593;28;20045;-52
2022/03/30 06:42:34;;;;;;;39.85;13.90;;;;;;;7.52;84.98;92502.28;5031710;28;20053;-48
2022/03/30 06:45:01;;;;;;;29.52;10.95;;;;;;;7.52;84.90;92497.59;5031504;28;20047;-48
2022/03/30 06:47:28;;;;;;;29.02;10.57;;;;;;;7.52;84.83;92500.31;5031344;28;20425;-55
2022/03/30 06:49:55;;;;;;;32.47;12.60;;;;;;;7.56;84.21;92489.31;5030269;28;20068;-52
2022/03/30 06:52:22;;;;;;;34.22;11.50;;;;;;;7.62;85.07;92495.03;5031790;28;20051;-47
2022/03/30 06:54:48;;;;;;;30.38;10.73;;;;;;;7.71;83.76;92489.72;5031303;28;20055;-46
2022/03/30 06:57:15;;;;;;;32.72;10.55;;;;;;;7.84;83.31;92487.75;5030422;28;20041;-47
2022/03/30 06:59:42;;;;;;;33.13;11.85;;;;;;;7.84;83.22;92489.75;5031322;28;20715;-49
2022/03/30 07:02:09;;;;;;;33.13;10.90;;;;;;;7.92;82.55;92489.09;5024098;28;20060;-52
2022/03/30 07:04:36;;;;;;;35.30;10.45;;;;;;;7.98;82.38;92487.34;5010396;28;20075;-51
2022/03/30 07:12:34;;;;;;;35.25;12.57;;;;;;;7.55;83.16;92483.09;5031405;28;20065;-48
2022/03/30 07:15:02;;;;;;;41.70;12.83;;;;;;;7.72;83.22;92485.75;5031189;28;20098;-50
2022/03/30 07:17:30;;;;;;;51.55;14.25;;;;;;;7.58;83.26;92490.41;5030831;28;20045;-54
2022/03/30 07:19:57;;;;;;;41.40;12.88;;;;;;;7.82;83.80;92490.16;5030576;28;20397;-56
2022/03/30 07:22:24;;;;;;;48.55;15.00;;;;;;;7.88;83.92;92485.69;5031095;28;20059;-49
2022/03/30 07:24:51;;;;;;;51.25;16.50;;;;;;;8.04;83.09;92493.06;5030459;28;20049;-55
2022/03/30 07:27:18;;;;;;;61.67;20.80;;;;;;;7.98;82.00;92490.09;5029775;28;20049;-49
2022/03/30 07:29:45;;;;;;;38.92;13.93;;;;;;;7.99;82.25;92491.63;5030370;28;20057;-49
2022/03/30 07:32:11;;;;;;;31.83;11.23;;;;;;;8.09;81.64;92483.56;5029515;28;20041;-54
2022/03/30 07:34:39;;;;;;;43.10;12.98;;;;;;;7.97;82.26;92490.56;5029030;28;20048;-48
2022/03/30 07:37:06;;;;;;;56.45;16.98;;;;;;;7.95;83.22;92488.25;5029252;28;20052;-53
2022/03/30 07:39:33;;;;;;;40.23;13.67;;;;;;;8.07;84.29;92483.22;5030772;28;20453;-47
2022/03/30 07:41:59;;;;;;;43.38;12.60;;;;;;;8.26;82.60;92485.00;5030334;28;20037;-47
2022/03/30 07:44:26;;;;;;;38.40;12.13;;;;;;;8.07;81.07;92477.75;5030674;28;20041;-49
2022/03/30 07:46:54;;;;;;;49.03;15.35;;;;;;;8.07;82.40;92472.28;5030037;28;20045;-55
2022/03/30 07:49:22;;;;;;;35.17;11.70;;;;;;;7.82;83.01;92467.56;5030671;28;20487;-52
2022/03/30 07:51:48;;;;;;;40.07;13.00;;;;;;;7.90;82.88;92480.56;5030406;28;20049;-50
2022/03/30 07:54:15;;;;;;;33.08;10.07;;;;;;;7.88;82.86;92476.75;5030477;28;20041;-51
2022/03/30 07:56:42;;;;;;;30.33;10.20;;;;;;;7.92;82.69;92472.72;5029976;28;20406;-48
2022/03/30 07:59:09;;;;;;;30.67;9.63;;;;;;;7.99;83.35;92483.44;5030520;28;20422;-48
2022/03/30 08:01:36;;;;;;;33.72;9.57;;;;;;;8.06;83.22;92470.78;5007680;28;20043;-48
2022/03/30 08:04:03;;;;;;;32.63;8.27;;;;;;;7.97;82.96;92474.16;5015522;28;20056;-47
2022/03/30 08:06:30;;;;;;;29.63;9.40;;;;;;;7.96;83.27;92478.06;5018527;28;20049;-55
2022/03/30 08:08:57;;;;;;;40.00;10.07;;;;;;;8.15;83.43;92471.66;5028944;28;20045;-47
2022/03/30 08:11:23;;;;;;;33.10;8.93;;;;;;;7.94;82.90;92475.78;5045479;28;20045;-50
2022/03/30 08:13:50;;;;;;;30.90;8.43;;;;;;;7.96;81.93;92478.84;5029725;28;20445;-49
2022/03/30 08:16:17;;;;;;;31.80;9.23;;;;;;;8.23;83.11;92474.97;5030055;28;20041;-47
2022/03/30 08:18:44;;;;;;;30.63;8.60;;;;;;;8.17;82.53;92482.94;5029233;28;20058;-50
2022/03/30 08:23:56;;;;;;;32.60;8.32;;;;;;;7.97;83.00;92477.66;5029340;28;20049;-49
2022/03/30 08:26:23;;;;;;;26.40;8.68;;;;;;;7.75;83.86;92477.47;5062195;28;20059;-47
2022/03/30 08:28:50;;;;;;;23.10;8.00;;;;;;;7.94;84.63;92470.31;5029774;28;20045;-47
2022/03/30 08:31:17;;;;;;;29.40;8.77;;;;;;;7.80;84.21;92465.25;5028567;28;20041;-54
2022/03/30 08:33:43;;;;;;;26.58;8.75;;;;;;;7.79;84.45;92466.47;5029824;28;20049;-51
2022/03/30 08:36:10;;;;;;;30.23;9.75;;;;;;;7.95;84.78;92462.91;5030049;28;20052;-48
2022/03/30 08:38:37;;;;;;;29.90;8.43;;;;;;;7.89;84.48;92470.09;5029587;28;20053;-48
2022/03/30 08:41:04;;;;;;;28.13;8.70;;;;;;;8.10;83.89;92461.25;5029221;28;20818;-49
2022/03/30 08:43:31;;;;;;;26.13;8.40;;;;;;;7.95;83.33;92468.38;5028584;28;20123;-52
2022/03/30 08:46:00;;;;;;;25.27;8.23;;;;;;;7.96;82.75;92465.19;5029203;28;20133;-49
2022/03/30 08:48:28;;;;;;;27.83;8.38;;;;;;;7.99;83.10;92461.59;5034019;28;20400;-49
2022/03/30 08:50:58;;;;;;;25.83;8.15;;;;;;;8.04;83.25;92465.75;5033608;28;20056;-51
2022/03/30 08:53:26;;;;;;;25.63;8.40;;;;;;;8.19;83.09;92460.63;5033752;28;20444;-49
2022/03/30 08:55:53;;;;;;;27.58;8.18;;;;;;;8.22;83.68;92467.19;5033378;28;20076;-55
2022/03/30 08:58:20;;;;;;;23.02;7.60;;;;;;;8.12;81.95;92463.56;5034012;28;20053;-50
2022/03/30 09:00:47;;;;;;;26.98;7.57;;;;;;;8.24;83.15;92462.81;5033220;28;20053;-53
2022/03/30 09:03:17;;;;;;;20.65;7.60;;;;;;;8.32;82.04;92466.09;5032294;28;20041;-52
2022/03/30 09:05:45;;;;;;;21.27;7.53;;;;;;;8.52;81.58;92472.16;5033114;28;20057;-50
2022/03/30 09:08:20;;;;;;;19.52;7.60;;;;;;;8.84;80.36;92472.38;5033181;28;20054;-53
2022/03/30 09:10:50;;;;;;;16.50;6.55;;;;;;;9.07;78.67;92471.97;5033234;28;20045;-46
2022/03/30 09:13:17;;;;;;;19.73;5.63;;;;;;;9.02;77.37;92463.59;5033744;28;20053;-47
2022/03/30 09:15:49;;;;;;;14.80;5.07;;;;;;;8.89;76.31;92467.06;5032580;28;20054;-47
2022/03/30 09:18:16;;;;;;;15.47;6.17;;;;;;;8.66;78.83;92476.41;5033214;28;20053;-48
2022/03/30 09:20:47;;;;;;;14.93;5.85;;;;;;;8.56;79.38;92466.56;5033232;28;20053;-49
2022/03/30 09:23:20;;;;;;;13.68;5.40;;;;;;;8.65;78.16;92468.63;5033146;28;20045;-51
2022/03/30 09:25:49;;;;;;;12.20;5.47;;;;;;;8.62;77.92;92467.56;5032919;28;20516;-49
2022/03/30 09:28:18;;;;;;;13.68;6.20;;;;;;;8.71;77.50;92475.09;5033425;28;20053;-48
2022/03/30 09:30:47;;;;;;;18.30;7.37;;;;;;;8.59;76.69;92463.75;5032525;28;20456;-53
2022/03/30 09:33:17;;;;;;;16.67;5.93;;;;;;;8.63;77.24;92465.56;5033203;28;20056;-53
2022/03/30 09:35:44;;;;;;;14.27;5.55;;;;;;;8.95;75.60;92456.34;5032793;28;20049;-51
2022/03/30 09:38:19;;;;;;;10.90;5.28;;;;;;;9.04;75.06;92467.41;5032649;28;20037;-50
2022/03/30 09:41:04;;;;;;;11.48;4.80;;;;;;;9.12;74.04;92460.47;5032697;28;20076;-50
2022/03/30 09:43:34;;;;;;;10.90;4.57;;;;;;;9.20;75.45;92458.28;5033112;28;20049;-51
2022/03/30 09:46:13;;;;;;;8.25;3.20;;;;;;;9.11;71.92;92455.44;5032225;28;20339;-51
2022/03/30 09:48:52;;;;;;;8.52;3.83;;;;;;;9.44;72.32;92455.91;5032554;28;20042;-47
2022/03/30 09:51:23;;;;;;;9.90;4.00;;;;;;;9.47;72.91;92452.25;5032919;28;20041;-51
2022/03/30 09:53:50;;;;;;;8.43;3.47;;;;;;;9.40;73.46;92447.81;5031942;28;20052;-49
2022/03/30 09:56:19;;;;;;;8.33;3.50;;;;;;;9.19;72.32;92446.56;5032763;28;20041;-55
2022/03/30 09:58:47;;;;;;;8.15;3.05;;;;;;;8.92;74.25;92444.31;5031599;28;20057;-51
2022/03/30 10:01:13;;;;;;;9.90;4.50;;;;;;;9.00;74.74;92450.34;5032388;28;20053;-50
2022/03/30 10:03:50;;;;;;;7.32;3.20;;;;;;;8.96;74.47;92441.47;5031957;28;20051;-48
2022/03/30 10:06:24;;;;;;;7.45;3.50;;;;;;;9.02;73.62;92434.25;5032415;28;20394;-48
2022/03/30 10:08:51;;;;;;;7.00;2.60;;;;;;;9.11;73.64;92430.81;5031686;28;20424;-53
2022/03/30 10:11:20;;;;;;;6.95;3.90;;;;;;;8.89;73.42;92430.75;5032456;28;20043;-52
2022/03/30 10:13:51;;;;;;;7.53;3.80;;;;;;;9.07;73.95;92433.66;5031927;28;20041;-48
2022/03/30 10:16:38;;;;;;;7.97;3.15;;;;;;;9.29;73.51;92422.00;5032195;28;20045;-49
2022/03/30 10:19:08;;;;;;;8.00;3.60;;;;;;;9.17;74.07;92424.31;5031115;28;20432;-50
2022/03/30 10:21:47;;;;;;;9.90;3.37;;;;;;;9.24;72.28;92426.06;5032339;28;20038;-49
2022/03/30 10:24:56;;;;;;;6.20;3.30;;;;;;;9.08;74.38;92423.50;5031374;28;20816;-47
2022/03/30 10:27:52;;;;;;;8.85;3.33;;;;;;;9.16;73.35;92422.06;5031360;28;20875;-52
2022/03/30 10:30:25;;;;;;;10.57;3.30;;;;;;;9.17;73.81;92420.81;5030931;28;20414;-51
2022/03/30 10:32:58;;;;;;;10.70;3.58;;;;;;;8.98;74.75;92411.69;5031627;28;20061;-55
2022/03/30 10:35:51;;;;;;;7.53;3.73;;;;;;;9.06;74.32;92406.75;5032093;28;20052;-51
2022/03/30 10:38:18;;;;;;;9.52;3.58;;;;;;;9.05;74.45;92411.44;5029693;28;20274;-49
2022/03/30 10:40:44;;;;;;;6.75;3.30;;;;;;;9.05;73.41;92410.69;5031303;28;20114;-54
2022/03/30 10:43:23;;;;;;;9.70;3.40;;;;;;;8.92;75.60;92406.03;5031997;28;20044;-53
2022/03/30 10:46:03;;;;;;;7.80;3.60;;;;;;;8.95;74.94;92402.41;5031311;28;20049;-52
2022/03/30 10:48:30;;;;;;;6.63;3.00;;;;;;;8.80;74.28;92407.56;5031765;28;20056;-52
2022/03/30 10:50:57;;;;;;;6.82;3.20;;;;;;;8.52;75.37;92413.97;5031740;28;20118;-53
2022/03/30 10:53:30;;;;;;;7.55;3.40;;;;;;;8.53;75.78;92412.75;5031386;28;20056;-52
2022/03/30 10:56:15;;;;;;;6.07;3.00;;;;;;;8.64;74.88;92402.25;5031186;28;20037;-46
2022/03/30 10:58:58;;;;;;;10.07;4.03;;;;;;;8.84;75.58;92402.00;5031351;28;20482;-50
2022/03/30 11:01:30;;;;;;;6.40;3.50;;;;;;;8.94;75.59;92403.59;5031740;28;20038;-56
2022/03/30 11:04:13;;;;;;;8.57;3.80;;;;;;;8.90;75.47;92394.75;5030914;28;20126;-49
2022/03/30 11:06:42;;;;;;;6.95;3.60;;;;;;;8.78;76.26;92404.53;5030866;28;20056;-54
2022/03/30 11:09:28;;;;;;;9.73;4.20;;;;;;;8.85;76.33;92391.81;5031373;28;20394;-49
2022/03/30 11:11:59;;;;;;;9.00;4.32;;;;;;;9.00;76.74;92393.63;5029356;28;20049;-56
2022/03/30 11:14:40;;;;;;;11.77;4.40;;;;;;;9.24;75.69;92390.50;5031527;28;20057;-54
2022/03/30 11:17:09;;;;;;;8.25;3.80;;;;;;;9.22;75.26;92390.16;5030192;28;20189;-48
2022/03/30 11:19:49;;;;;;;7.78;3.70;;;;;;;9.30;75.48;92388.72;5031063;28;20045;-47
2022/03/30 11:22:24;;;;;;;11.10;4.10;;;;;;;9.35;76.32;92385.38;5030249;28;20189;-53
2022/03/30 11:25:20;;;;;;;9.13;4.50;;;;;;;9.53;75.08;92373.03;5030643;28;20038;-47
2022/03/30 11:27:59;;;;;;;12.43;6.07;;;;;;;9.59;77.04;92371.25;5030670;28;20437;-48
2022/03/30 11:30:30;;;;;;;11.30;5.10;;;;;;;10.32;76.14;92361.88;5031108;28;20049;-52
2022/03/30 11:33:01;;;;;;;11.23;5.00;;;;;;;11.49;72.59;92371.97;5030653;28;20053;-49
2022/03/30 11:35:34;;;;;;;10.23;4.60;;;;;;;12.15;68.82;92365.91;5031067;28;20037;-57
2022/03/30 11:38:16;;;;;;;11.60;4.90;;;;;;;11.60;67.63;92366.00;5030147;28;20393;-49
2022/03/30 11:40:45;;;;;;;11.67;5.30;;;;;;;11.51;68.60;92364.03;5029394;28;20053;-52
2022/03/30 11:43:12;;;;;;;12.95;6.88;;;;;;;10.90;71.71;92357.59;5030842;28;20060;-53
2022/03/30 11:46:00;;;;;;;14.95;6.43;;;;;;;11.59;70.42;92350.75;5030035;28;20075;-57
2022/03/30 11:48:34;;;;;;;14.38;7.30;;;;;;;11.51;70.44;92347.56;5030627;28;20045;-51
2022/03/30 11:51:03;;;;;;;11.07;6.13;;;;;;;11.43;68.21;92349.09;5030234;28;20037;-51